sensor_id;sensor_type;location;lat;lon;timestamp;P1;durP1;ratioP1;P2;durP2;ratioP2
15841;SDS011;8021;48.022;11.812;2024-01-16T00:00:19;1.00;;;1.00;;
15841;SDS011;8021;48.022;11.812;2024-01-16T00:02:48;0.90;;;0.90;;
15841;SDS011;8021;48.022;11.812;2024-01-16T00:05:16;1.00;;;1.00;;
15841;SDS011;8021;48.022;11.812;2024-01-16T00:07:43;1.00;;;1.00;;
15841;SDS011;8021;48.022;11.812;2024-01-16T00:10:11;0.80;;;0.80;;
15841;SDS011;8021;48.022;11.812;2024-01-16T00:12:38;1.00;;;1.00;;
15841;SDS011;8021;48.022;11.812;2024-01-16T00:15:07;0.80;;;0.80;;
15841;SDS011;8021;48.022;11.812;2024-01-16T00:17:35;0.80;;;0.80;;
15841;SDS011;8021;48.022;11.812;2024-01-16T00:20:05;1.07;;;1.07;;
15841;SDS011;8021;48.022;11.812;2024-01-16T00:22:33;0.93;;;0.93;;
15841;SDS011;8021;48.022;11.812;2024-01-16T00:25:00;1.00;;;1.00;;
15841;SDS011;8021;48.022;11.812;2024-01-16T00:27:28;0.80;;;0.80;;
15841;SDS011;8021;48.022;11.812;2024-01-16T00:29:55;1.00;;;1.00;;
15841;SDS011;8021;48.022;11.812;2024-01-16T00:32:23;0.97;;;0.97;;
15841;SDS011;8021;48.022;11.812;2024-01-16T00:34:50;0.83;;;0.83;;
15841;SDS011;8021;48.022;11.812;2024-01-16T00:37:19;0.80;;;0.80;;
15841;SDS011;8021;48.022;11.812;2024-01-16T00:39:48;0.80;;;0.80;;
15841;SDS011;8021;48.022;11.812;2024-01-16T00:42:15;1.00;;;1.00;;
15841;SDS011;8021;48.022;11.812;2024-01-16T00:44:43;0.90;;;0.90;;
15841;SDS011;8021;48.022;11.812;2024-01-16T00:47:10;1.03;;;1.03;;
15841;SDS011;8021;48.022;11.812;2024-01-16T00:49:38;1.00;;;1.00;;
15841;SDS011;8021;48.022;11.812;2024-01-16T00:52:05;1.07;;;1.07;;
15841;SDS011;8021;48.022;11.812;2024-01-16T00:54:35;0.90;;;0.90;;
15841;SDS011;8021;48.022;11.812;2024-01-16T00:57:03;1.10;;;1.10;;
15841;SDS011;8021;48.022;11.812;2024-01-16T00:59:30;0.80;;;0.80;;
15841;SDS011;8021;48.022;11.812;2024-01-16T01:01:58;0.70;;;0.70;;
15841;SDS011;8021;48.022;11.812;2024-01-16T01:04:25;0.80;;;0.80;;
15841;SDS011;8021;48.022;11.812;2024-01-16T01:06:53;1.07;;;1.07;;
15841;SDS011;8021;48.022;11.812;2024-01-16T01:09:20;1.13;;;1.13;;
15841;SDS011;8021;48.022;11.812;2024-01-16T01:11:49;1.20;;;1.20;;
15841;SDS011;8021;48.022;11.812;2024-01-16T01:14:17;0.93;;;0.93;;
15841;SDS011;8021;48.022;11.812;2024-01-16T01:16:45;0.87;;;0.87;;
15841;SDS011;8021;48.022;11.812;2024-01-16T01:19:12;1.00;;;1.00;;
15841;SDS011;8021;48.022;11.812;2024-01-16T01:21:40;0.83;;;0.83;;
15841;SDS011;8021;48.022;11.812;2024-01-16T01:24:07;1.00;;;1.00;;
15841;SDS011;8021;48.022;11.812;2024-01-16T01:26:35;1.07;;;1.07;;
15841;SDS011;8021;48.022;11.812;2024-01-16T01:29:04;1.10;;;1.10;;
15841;SDS011;8021;48.022;11.812;2024-01-16T01:31:31;0.80;;;0.80;;
15841;SDS011;8021;48.022;11.812;2024-01-16T01:33:59;1.00;;;1.00;;
15841;SDS011;8021;48.022;11.812;2024-01-16T01:36:27;1.10;;;1.10;;
15841;SDS011;8021;48.022;11.812;2024-01-16T01:38:54;0.90;;;0.90;;
15841;SDS011;8021;48.022;11.812;2024-01-16T01:41:22;0.90;;;0.90;;
15841;SDS011;8021;48.022;11.812;2024-01-16T01:43:49;1.20;;;1.20;;
15841;SDS011;8021;48.022;11.812;2024-01-16T01:46:18;0.90;;;0.90;;
15841;SDS011;8021;48.022;11.812;2024-01-16T01:48:46;1.00;;;1.00;;
15841;SDS011;8021;48.022;11.812;2024-01-16T01:51:16;1.20;;;1.20;;
15841;SDS011;8021;48.022;11.812;2024-01-16T01:53:45;0.80;;;0.80;;
15841;SDS011;8021;48.022;11.812;2024-01-16T01:56:13;1.00;;;1.00;;
15841;SDS011;8021;48.022;11.812;2024-01-16T01:58:43;0.80;;;0.80;;
15841;SDS011;8021;48.022;11.812;2024-01-16T02:01:10;0.90;;;0.90;;
15841;SDS011;8021;48.022;11.812;2024-01-16T02:03:41;1.03;;;1.03;;
15841;SDS011;8021;48.022;11.812;2024-01-16T02:06:10;1.17;;;1.17;;
15841;SDS011;8021;48.022;11.812;2024-01-16T02:08:37;1.17;;;1.17;;
15841;SDS011;8021;48.022;11.812;2024-01-16T02:11:06;0.83;;;0.83;;
15841;SDS011;8021;48.022;11.812;2024-01-16T02:13:33;1.00;;;1.00;;
15841;SDS011;8021;48.022;11.812;2024-01-16T02:16:01;0.90;;;0.90;;
15841;SDS011;8021;48.022;11.812;2024-01-16T02:18:29;0.80;;;0.80;;
15841;SDS011;8021;48.022;11.812;2024-01-16T02:20:59;1.20;;;1.20;;
15841;SDS011;8021;48.022;11.812;2024-01-16T02:23:29;0.80;;;0.80;;
15841;SDS011;8021;48.022;11.812;2024-01-16T02:25:57;1.10;;;1.10;;
15841;SDS011;8021;48.022;11.812;2024-01-16T02:28:25;1.00;;;1.00;;
15841;SDS011;8021;48.022;11.812;2024-01-16T02:30:52;1.00;;;1.00;;
15841;SDS011;8021;48.022;11.812;2024-01-16T02:33:20;1.00;;;1.00;;
15841;SDS011;8021;48.022;11.812;2024-01-16T02:35:48;1.00;;;1.00;;
15841;SDS011;8021;48.022;11.812;2024-01-16T02:38:15;0.80;;;0.80;;
15841;SDS011;8021;48.022;11.812;2024-01-16T02:40:44;0.93;;;0.93;;
15841;SDS011;8021;48.022;11.812;2024-01-16T02:43:12;1.30;;;1.30;;
15841;SDS011;8021;48.022;11.812;2024-01-16T02:45:39;1.00;;;1.00;;
15841;SDS011;8021;48.022;11.812;2024-01-16T02:48:07;1.00;;;1.00;;
15841;SDS011;8021;48.022;11.812;2024-01-16T02:50:34;1.00;;;1.00;;
15841;SDS011;8021;48.022;11.812;2024-01-16T02:53:02;1.50;;;1.50;;
15841;SDS011;8021;48.022;11.812;2024-01-16T02:55:29;0.90;;;0.90;;
15841;SDS011;8021;48.022;11.812;2024-01-16T02:57:58;0.97;;;0.97;;
15841;SDS011;8021;48.022;11.812;2024-01-16T03:00:26;0.77;;;0.77;;
15841;SDS011;8021;48.022;11.812;2024-01-16T03:02:54;1.00;;;1.00;;
15841;SDS011;8021;48.022;11.812;2024-01-16T03:05:21;0.93;;;0.93;;
15841;SDS011;8021;48.022;11.812;2024-01-16T03:07:49;0.90;;;0.90;;
15841;SDS011;8021;48.022;11.812;2024-01-16T03:10:16;1.10;;;1.10;;
15841;SDS011;8021;48.022;11.812;2024-01-16T03:12:44;1.10;;;1.10;;
15841;SDS011;8021;48.022;11.812;2024-01-16T03:15:13;1.10;;;1.10;;
15841;SDS011;8021;48.022;11.812;2024-01-16T03:17:41;1.10;;;1.10;;
15841;SDS011;8021;48.022;11.812;2024-01-16T03:20:09;1.27;;;1.27;;
15841;SDS011;8021;48.022;11.812;2024-01-16T03:22:36;1.57;;;1.57;;
15841;SDS011;8021;48.022;11.812;2024-01-16T03:25:04;1.00;;;1.00;;
15841;SDS011;8021;48.022;11.812;2024-01-16T03:27:32;0.73;;;0.73;;
15841;SDS011;8021;48.022;11.812;2024-01-16T03:32:55;0.93;;;0.93;;
15841;SDS011;8021;48.022;11.812;2024-01-16T03:35:23;1.03;;;1.03;;
15841;SDS011;8021;48.022;11.812;2024-01-16T03:37:51;1.10;;;1.10;;
15841;SDS011;8021;48.022;11.812;2024-01-16T03:40:18;1.00;;;1.00;;
15841;SDS011;8021;48.022;11.812;2024-01-16T03:42:46;1.00;;;1.00;;
15841;SDS011;8021;48.022;11.812;2024-01-16T03:45:13;1.07;;;1.07;;
15841;SDS011;8021;48.022;11.812;2024-01-16T03:47:43;1.20;;;1.20;;
15841;SDS011;8021;48.022;11.812;2024-01-16T03:50:12;1.00;;;1.00;;
15841;SDS011;8021;48.022;11.812;2024-01-16T03:52:40;0.93;;;0.93;;
15841;SDS011;8021;48.022;11.812;2024-01-16T03:55:08;1.03;;;1.03;;
15841;SDS011;8021;48.022;11.812;2024-01-16T03:57:35;0.97;;;0.97;;
15841;SDS011;8021;48.022;11.812;2024-01-16T04:00:03;0.90;;;0.90;;
15841;SDS011;8021;48.022;11.812;2024-01-16T04:02:31;0.83;;;0.83;;
15841;SDS011;8021;48.022;11.812;2024-01-16T04:04:59;1.17;;;1.17;;
15841;SDS011;8021;48.022;11.812;2024-01-16T04:07:28;0.93;;;0.93;;
15841;SDS011;8021;48.022;11.812;2024-01-16T04:09:56;0.80;;;0.80;;
15841;SDS011;8021;48.022;11.812;2024-01-16T04:12:23;1.00;;;1.00;;
15841;SDS011;8021;48.022;11.812;2024-01-16T04:14:51;0.90;;;0.90;;
15841;SDS011;8021;48.022;11.812;2024-01-16T04:17:18;0.90;;;0.90;;
15841;SDS011;8021;48.022;11.812;2024-01-16T04:19:46;1.00;;;1.00;;
15841;SDS011;8021;48.022;11.812;2024-01-16T04:22:14;1.10;;;1.10;;
15841;SDS011;8021;48.022;11.812;2024-01-16T04:24:43;1.00;;;1.00;;
15841;SDS011;8021;48.022;11.812;2024-01-16T04:27:11;1.00;;;1.00;;
15841;SDS011;8021;48.022;11.812;2024-01-16T04:29:39;1.20;;;1.20;;
15841;SDS011;8021;48.022;11.812;2024-01-16T04:32:06;1.03;;;1.03;;
15841;SDS011;8021;48.022;11.812;2024-01-16T04:34:34;1.10;;;1.10;;
15841;SDS011;8021;48.022;11.812;2024-01-16T04:37:02;1.10;;;1.10;;
15841;SDS011;8021;48.022;11.812;2024-01-16T04:39:29;0.97;;;0.97;;
15841;SDS011;8021;48.022;11.812;2024-01-16T04:41:59;0.97;;;0.97;;
15841;SDS011;8021;48.022;11.812;2024-01-16T04:44:26;0.90;;;0.90;;
15841;SDS011;8021;48.022;11.812;2024-01-16T04:46:54;1.20;;;1.20;;
15841;SDS011;8021;48.022;11.812;2024-01-16T04:49:22;1.10;;;1.10;;
15841;SDS011;8021;48.022;11.812;2024-01-16T04:51:50;1.20;;;1.20;;
15841;SDS011;8021;48.022;11.812;2024-01-16T04:54:18;1.10;;;1.10;;
15841;SDS011;8021;48.022;11.812;2024-01-16T04:56:45;1.00;;;1.00;;
15841;SDS011;8021;48.022;11.812;2024-01-16T04:59:14;0.90;;;0.90;;
15841;SDS011;8021;48.022;11.812;2024-01-16T05:01:42;1.10;;;1.10;;
15841;SDS011;8021;48.022;11.812;2024-01-16T05:04:10;1.00;;;1.00;;
15841;SDS011;8021;48.022;11.812;2024-01-16T05:06:37;1.00;;;1.00;;
15841;SDS011;8021;48.022;11.812;2024-01-16T05:09:05;1.23;;;1.23;;
15841;SDS011;8021;48.022;11.812;2024-01-16T05:11:34;1.07;;;1.07;;
15841;SDS011;8021;48.022;11.812;2024-01-16T05:14:01;1.00;;;1.00;;
15841;SDS011;8021;48.022;11.812;2024-01-16T05:16:30;0.80;;;0.80;;
15841;SDS011;8021;48.022;11.812;2024-01-16T05:18:57;1.00;;;1.00;;
15841;SDS011;8021;48.022;11.812;2024-01-16T05:21:25;0.90;;;0.90;;
15841;SDS011;8021;48.022;11.812;2024-01-16T05:23:53;0.80;;;0.80;;
15841;SDS011;8021;48.022;11.812;2024-01-16T05:26:20;1.00;;;1.00;;
15841;SDS011;8021;48.022;11.812;2024-01-16T05:28:48;0.90;;;0.90;;
15841;SDS011;8021;48.022;11.812;2024-01-16T05:31:16;0.90;;;0.90;;
15841;SDS011;8021;48.022;11.812;2024-01-16T05:33:45;1.20;;;1.20;;
15841;SDS011;8021;48.022;11.812;2024-01-16T05:36:12;1.00;;;1.00;;
15841;SDS011;8021;48.022;11.812;2024-01-16T05:38:40;0.80;;;0.80;;
15841;SDS011;8021;48.022;11.812;2024-01-16T05:41:07;1.10;;;1.10;;
15841;SDS011;8021;48.022;11.812;2024-01-16T05:43:35;0.97;;;0.97;;
15841;SDS011;8021;48.022;11.812;2024-01-16T05:46:03;1.17;;;1.17;;
15841;SDS011;8021;48.022;11.812;2024-01-16T05:48:30;1.00;;;1.00;;
15841;SDS011;8021;48.022;11.812;2024-01-16T05:51:00;1.00;;;1.00;;
15841;SDS011;8021;48.022;11.812;2024-01-16T05:53:27;1.27;;;1.27;;
15841;SDS011;8021;48.022;11.812;2024-01-16T05:55:55;1.00;;;1.00;;
15841;SDS011;8021;48.022;11.812;2024-01-16T05:58:23;0.80;;;0.80;;
15841;SDS011;8021;48.022;11.812;2024-01-16T06:00:50;1.00;;;1.00;;
15841;SDS011;8021;48.022;11.812;2024-01-16T06:03:18;1.10;;;1.10;;
15841;SDS011;8021;48.022;11.812;2024-01-16T06:05:45;1.00;;;1.00;;
15841;SDS011;8021;48.022;11.812;2024-01-16T06:08:14;0.90;;;0.90;;
15841;SDS011;8021;48.022;11.812;2024-01-16T06:10:42;0.90;;;0.90;;
15841;SDS011;8021;48.022;11.812;2024-01-16T06:13:10;0.83;;;0.83;;
15841;SDS011;8021;48.022;11.812;2024-01-16T06:15:37;0.90;;;0.90;;
15841;SDS011;8021;48.022;11.812;2024-01-16T06:18:05;1.00;;;1.00;;
15841;SDS011;8021;48.022;11.812;2024-01-16T06:20:33;0.90;;;0.90;;
15841;SDS011;8021;48.022;11.812;2024-01-16T06:23:00;1.00;;;1.00;;
15841;SDS011;8021;48.022;11.812;2024-01-16T06:25:29;1.17;;;1.17;;
15841;SDS011;8021;48.022;11.812;2024-01-16T06:27:57;1.00;;;1.00;;
15841;SDS011;8021;48.022;11.812;2024-01-16T06:30:27;1.00;;;1.00;;
15841;SDS011;8021;48.022;11.812;2024-01-16T06:32:55;1.20;;;1.20;;
15841;SDS011;8021;48.022;11.812;2024-01-16T06:35:23;0.90;;;0.90;;
15841;SDS011;8021;48.022;11.812;2024-01-16T06:37:51;0.80;;;0.80;;
15841;SDS011;8021;48.022;11.812;2024-01-16T06:40:19;1.13;;;1.13;;
15841;SDS011;8021;48.022;11.812;2024-01-16T06:42:48;1.10;;;1.10;;
15841;SDS011;8021;48.022;11.812;2024-01-16T06:45:16;1.03;;;1.03;;
15841;SDS011;8021;48.022;11.812;2024-01-16T06:47:43;1.03;;;1.03;;
15841;SDS011;8021;48.022;11.812;2024-01-16T06:50:13;1.30;;;1.30;;
15841;SDS011;8021;48.022;11.812;2024-01-16T06:52:41;1.00;;;1.00;;
15841;SDS011;8021;48.022;11.812;2024-01-16T06:55:08;1.10;;;1.10;;
15841;SDS011;8021;48.022;11.812;2024-01-16T06:57:36;1.03;;;1.03;;
15841;SDS011;8021;48.022;11.812;2024-01-16T07:00:06;1.13;;;1.13;;
15841;SDS011;8021;48.022;11.812;2024-01-16T07:02:34;1.00;;;1.00;;
15841;SDS011;8021;48.022;11.812;2024-01-16T07:05:02;0.90;;;0.90;;
15841;SDS011;8021;48.022;11.812;2024-01-16T07:07:30;0.90;;;0.90;;
15841;SDS011;8021;48.022;11.812;2024-01-16T07:09:57;0.90;;;0.90;;
15841;SDS011;8021;48.022;11.812;2024-01-16T07:12:25;0.90;;;0.90;;
15841;SDS011;8021;48.022;11.812;2024-01-16T07:14:53;1.20;;;1.20;;
15841;SDS011;8021;48.022;11.812;2024-01-16T07:17:22;0.90;;;0.90;;
15841;SDS011;8021;48.022;11.812;2024-01-16T07:19:49;0.87;;;0.87;;
15841;SDS011;8021;48.022;11.812;2024-01-16T07:22:18;0.93;;;0.93;;
15841;SDS011;8021;48.022;11.812;2024-01-16T07:24:45;1.00;;;1.00;;
15841;SDS011;8021;48.022;11.812;2024-01-16T07:27:13;0.90;;;0.90;;
15841;SDS011;8021;48.022;11.812;2024-01-16T07:29:40;0.80;;;0.80;;
15841;SDS011;8021;48.022;11.812;2024-01-16T07:32:08;1.00;;;1.00;;
15841;SDS011;8021;48.022;11.812;2024-01-16T07:34:38;0.90;;;0.90;;
15841;SDS011;8021;48.022;11.812;2024-01-16T07:37:06;1.03;;;1.03;;
15841;SDS011;8021;48.022;11.812;2024-01-16T07:39:33;1.20;;;1.20;;
15841;SDS011;8021;48.022;11.812;2024-01-16T07:42:01;0.90;;;0.90;;
15841;SDS011;8021;48.022;11.812;2024-01-16T07:44:29;0.90;;;0.90;;
15841;SDS011;8021;48.022;11.812;2024-01-16T07:46:57;0.97;;;0.97;;
15841;SDS011;8021;48.022;11.812;2024-01-16T07:49:24;0.83;;;0.83;;
15841;SDS011;8021;48.022;11.812;2024-01-16T07:51:54;0.83;;;0.83;;
15841;SDS011;8021;48.022;11.812;2024-01-16T07:54:21;1.00;;;1.00;;
15841;SDS011;8021;48.022;11.812;2024-01-16T07:56:50;0.70;;;0.70;;
15841;SDS011;8021;48.022;11.812;2024-01-16T07:59:18;0.70;;;0.70;;
15841;SDS011;8021;48.022;11.812;2024-01-16T08:01:45;0.90;;;0.90;;
15841;SDS011;8021;48.022;11.812;2024-01-16T08:04:13;0.93;;;0.93;;
15841;SDS011;8021;48.022;11.812;2024-01-16T08:06:40;0.70;;;0.70;;
15841;SDS011;8021;48.022;11.812;2024-01-16T08:09:11;0.80;;;0.80;;
15841;SDS011;8021;48.022;11.812;2024-01-16T08:11:38;0.60;;;0.60;;
15841;SDS011;8021;48.022;11.812;2024-01-16T08:14:06;0.50;;;0.50;;
15841;SDS011;8021;48.022;11.812;2024-01-16T08:16:35;0.60;;;0.60;;
15841;SDS011;8021;48.022;11.812;2024-01-16T08:19:02;0.60;;;0.60;;
15841;SDS011;8021;48.022;11.812;2024-01-16T08:21:30;0.60;;;0.60;;
15841;SDS011;8021;48.022;11.812;2024-01-16T08:23:58;0.50;;;0.50;;
15841;SDS011;8021;48.022;11.812;2024-01-16T08:26:27;0.63;;;0.63;;
15841;SDS011;8021;48.022;11.812;2024-01-16T08:28:55;0.50;;;0.50;;
15841;SDS011;8021;48.022;11.812;2024-01-16T08:31:22;0.60;;;0.60;;
15841;SDS011;8021;48.022;11.812;2024-01-16T08:33:50;0.60;;;0.60;;
15841;SDS011;8021;48.022;11.812;2024-01-16T08:36:19;0.50;;;0.50;;
15841;SDS011;8021;48.022;11.812;2024-01-16T08:38:47;0.60;;;0.60;;
15841;SDS011;8021;48.022;11.812;2024-01-16T08:41:15;0.50;;;0.50;;
15841;SDS011;8021;48.022;11.812;2024-01-16T08:43:44;0.50;;;0.50;;
15841;SDS011;8021;48.022;11.812;2024-01-16T08:46:11;0.50;;;0.50;;
15841;SDS011;8021;48.022;11.812;2024-01-16T08:48:39;0.50;;;0.50;;
15841;SDS011;8021;48.022;11.812;2024-01-16T08:51:08;0.50;;;0.50;;
15841;SDS011;8021;48.022;11.812;2024-01-16T08:53:38;0.57;;;0.57;;
15841;SDS011;8021;48.022;11.812;2024-01-16T08:56:05;0.50;;;0.50;;
15841;SDS011;8021;48.022;11.812;2024-01-16T08:58:34;0.50;;;0.50;;
15841;SDS011;8021;48.022;11.812;2024-01-16T09:01:05;0.50;;;0.50;;
15841;SDS011;8021;48.022;11.812;2024-01-16T09:03:33;0.50;;;0.50;;
15841;SDS011;8021;48.022;11.812;2024-01-16T09:06:01;0.47;;;0.47;;
15841;SDS011;8021;48.022;11.812;2024-01-16T09:08:29;0.40;;;0.40;;
15841;SDS011;8021;48.022;11.812;2024-01-16T09:10:58;0.40;;;0.40;;
15841;SDS011;8021;48.022;11.812;2024-01-16T09:13:26;0.50;;;0.50;;
15841;SDS011;8021;48.022;11.812;2024-01-16T09:15:53;0.40;;;0.40;;
15841;SDS011;8021;48.022;11.812;2024-01-16T09:18:22;0.40;;;0.40;;
15841;SDS011;8021;48.022;11.812;2024-01-16T09:20:50;0.52;;;0.52;;
15841;SDS011;8021;48.022;11.812;2024-01-16T09:23:17;0.50;;;0.50;;
15841;SDS011;8021;48.022;11.812;2024-01-16T09:25:45;0.43;;;0.43;;
15841;SDS011;8021;48.022;11.812;2024-01-16T09:28:14;0.50;;;0.50;;
15841;SDS011;8021;48.022;11.812;2024-01-16T09:30:42;0.50;;;0.50;;
15841;SDS011;8021;48.022;11.812;2024-01-16T09:33:10;0.40;;;0.40;;
15841;SDS011;8021;48.022;11.812;2024-01-16T09:35:44;0.50;;;0.50;;
15841;SDS011;8021;48.022;11.812;2024-01-16T09:38:12;0.50;;;0.50;;
15841;SDS011;8021;48.022;11.812;2024-01-16T09:40:39;0.43;;;0.43;;
15841;SDS011;8021;48.022;11.812;2024-01-16T09:43:07;0.47;;;0.47;;
15841;SDS011;8021;48.022;11.812;2024-01-16T09:45:35;0.40;;;0.40;;
15841;SDS011;8021;48.022;11.812;2024-01-16T09:48:05;0.50;;;0.50;;
15841;SDS011;8021;48.022;11.812;2024-01-16T09:50:34;0.50;;;0.50;;
15841;SDS011;8021;48.022;11.812;2024-01-16T09:53:04;0.50;;;0.50;;
15841;SDS011;8021;48.022;11.812;2024-01-16T09:55:31;0.40;;;0.40;;
15841;SDS011;8021;48.022;11.812;2024-01-16T09:57:59;0.50;;;0.50;;
15841;SDS011;8021;48.022;11.812;2024-01-16T10:00:26;0.50;;;0.50;;
15841;SDS011;8021;48.022;11.812;2024-01-16T10:02:54;0.50;;;0.50;;
15841;SDS011;8021;48.022;11.812;2024-01-16T10:05:25;0.50;;;0.50;;
15841;SDS011;8021;48.022;11.812;2024-01-16T10:07:53;0.50;;;0.50;;
15841;SDS011;8021;48.022;11.812;2024-01-16T10:10:22;0.50;;;0.50;;
15841;SDS011;8021;48.022;11.812;2024-01-16T10:13:04;0.40;;;0.40;;
15841;SDS011;8021;48.022;11.812;2024-01-16T10:15:31;0.45;;;0.45;;
15841;SDS011;8021;48.022;11.812;2024-01-16T10:17:59;0.50;;;0.50;;
15841;SDS011;8021;48.022;11.812;2024-01-16T10:20:34;0.50;;;0.50;;
15841;SDS011;8021;48.022;11.812;2024-01-16T10:23:02;0.50;;;0.50;;
15841;SDS011;8021;48.022;11.812;2024-01-16T10:25:32;0.45;;;0.45;;
15841;SDS011;8021;48.022;11.812;2024-01-16T10:28:04;0.40;;;0.40;;
15841;SDS011;8021;48.022;11.812;2024-01-16T10:30:34;0.50;;;0.50;;
15841;SDS011;8021;48.022;11.812;2024-01-16T10:33:12;0.50;;;0.50;;
15841;SDS011;8021;48.022;11.812;2024-01-16T10:35:40;0.40;;;0.40;;
15841;SDS011;8021;48.022;11.812;2024-01-16T10:38:07;0.40;;;0.40;;
15841;SDS011;8021;48.022;11.812;2024-01-16T10:40:36;0.40;;;0.40;;
15841;SDS011;8021;48.022;11.812;2024-01-16T10:43:04;0.40;;;0.40;;
15841;SDS011;8021;48.022;11.812;2024-01-16T10:45:32;0.40;;;0.40;;
15841;SDS011;8021;48.022;11.812;2024-01-16T10:48:00;0.43;;;0.43;;
15841;SDS011;8021;48.022;11.812;2024-01-16T10:50:28;0.50;;;0.50;;
15841;SDS011;8021;48.022;11.812;2024-01-16T10:52:55;0.40;;;0.40;;
15841;SDS011;8021;48.022;11.812;2024-01-16T10:55:27;0.40;;;0.40;;
15841;SDS011;8021;48.022;11.812;2024-01-16T10:57:57;0.40;;;0.40;;
15841;SDS011;8021;48.022;11.812;2024-01-16T11:00:27;0.40;;;0.40;;
15841;SDS011;8021;48.022;11.812;2024-01-16T11:02:58;0.40;;;0.40;;
15841;SDS011;8021;48.022;11.812;2024-01-16T11:05:31;0.40;;;0.40;;
15841;SDS011;8021;48.022;11.812;2024-01-16T11:07:59;0.45;;;0.45;;
15841;SDS011;8021;48.022;11.812;2024-01-16T11:10:30;0.40;;;0.40;;
15841;SDS011;8021;48.022;11.812;2024-01-16T11:13:01;0.40;;;0.40;;
15841;SDS011;8021;48.022;11.812;2024-01-16T11:15:30;0.40;;;0.40;;
15841;SDS011;8021;48.022;11.812;2024-01-16T11:17:58;0.50;;;0.50;;
15841;SDS011;8021;48.022;11.812;2024-01-16T11:20:27;0.30;;;0.30;;
15841;SDS011;8021;48.022;11.812;2024-01-16T11:23:15;0.40;;;0.40;;
15841;SDS011;8021;48.022;11.812;2024-01-16T11:25:43;0.43;;;0.43;;
15841;SDS011;8021;48.022;11.812;2024-01-16T11:28:36;0.40;;;0.40;;
15841;SDS011;8021;48.022;11.812;2024-01-16T11:31:16;0.50;;;0.50;;
15841;SDS011;8021;48.022;11.812;2024-01-16T11:33:54;0.40;;;0.40;;
15841;SDS011;8021;48.022;11.812;2024-01-16T11:39:08;0.40;;;0.40;;
15841;SDS011;8021;48.022;11.812;2024-01-16T11:41:47;0.43;;;0.43;;
15841;SDS011;8021;48.022;11.812;2024-01-16T11:47:02;0.50;;;0.50;;
15841;SDS011;8021;48.022;11.812;2024-01-16T11:49:29;0.40;;;0.40;;
15841;SDS011;8021;48.022;11.812;2024-01-16T11:51:58;0.40;;;0.40;;
15841;SDS011;8021;48.022;11.812;2024-01-16T11:54:25;0.40;;;0.40;;
15841;SDS011;8021;48.022;11.812;2024-01-16T11:57:01;0.40;;;0.40;;
15841;SDS011;8021;48.022;11.812;2024-01-16T12:02:18;0.50;;;0.50;;
15841;SDS011;8021;48.022;11.812;2024-01-16T12:04:52;0.40;;;0.40;;
15841;SDS011;8021;48.022;11.812;2024-01-16T12:07:20;0.40;;;0.40;;
15841;SDS011;8021;48.022;11.812;2024-01-16T12:09:48;0.40;;;0.40;;
15841;SDS011;8021;48.022;11.812;2024-01-16T12:12:15;0.50;;;0.50;;
15841;SDS011;8021;48.022;11.812;2024-01-16T12:14:50;0.40;;;0.40;;
15841;SDS011;8021;48.022;11.812;2024-01-16T12:17:20;0.50;;;0.50;;
15841;SDS011;8021;48.022;11.812;2024-01-16T12:19:47;0.40;;;0.40;;
15841;SDS011;8021;48.022;11.812;2024-01-16T12:22:16;0.40;;;0.40;;
15841;SDS011;8021;48.022;11.812;2024-01-16T12:24:44;0.50;;;0.50;;
15841;SDS011;8021;48.022;11.812;2024-01-16T12:27:14;0.50;;;0.50;;
15841;SDS011;8021;48.022;11.812;2024-01-16T12:29:42;0.50;;;0.50;;
15841;SDS011;8021;48.022;11.812;2024-01-16T12:32:10;0.50;;;0.50;;
15841;SDS011;8021;48.022;11.812;2024-01-16T12:34:46;0.50;;;0.50;;
15841;SDS011;8021;48.022;11.812;2024-01-16T12:37:14;0.40;;;0.40;;
15841;SDS011;8021;48.022;11.812;2024-01-16T12:39:45;0.50;;;0.50;;
15841;SDS011;8021;48.022;11.812;2024-01-16T12:42:13;0.60;;;0.60;;
15841;SDS011;8021;48.022;11.812;2024-01-16T12:44:41;0.40;;;0.40;;
15841;SDS011;8021;48.022;11.812;2024-01-16T12:47:08;0.40;;;0.40;;
15841;SDS011;8021;48.022;11.812;2024-01-16T12:49:40;0.40;;;0.40;;
15841;SDS011;8021;48.022;11.812;2024-01-16T12:52:21;0.50;;;0.50;;
15841;SDS011;8021;48.022;11.812;2024-01-16T12:54:58;0.40;;;0.40;;
15841;SDS011;8021;48.022;11.812;2024-01-16T12:57:25;0.40;;;0.40;;
15841;SDS011;8021;48.022;11.812;2024-01-16T12:59:53;0.40;;;0.40;;
15841;SDS011;8021;48.022;11.812;2024-01-16T13:02:24;0.50;;;0.50;;
15841;SDS011;8021;48.022;11.812;2024-01-16T13:04:56;0.50;;;0.50;;
15841;SDS011;8021;48.022;11.812;2024-01-16T13:07:24;0.40;;;0.40;;
15841;SDS011;8021;48.022;11.812;2024-01-16T13:10:05;0.40;;;0.40;;
15841;SDS011;8021;48.022;11.812;2024-01-16T13:12:33;0.40;;;0.40;;
15841;SDS011;8021;48.022;11.812;2024-01-16T13:15:00;0.50;;;0.50;;
15841;SDS011;8021;48.022;11.812;2024-01-16T13:17:32;0.50;;;0.50;;
15841;SDS011;8021;48.022;11.812;2024-01-16T13:20:01;0.40;;;0.40;;
15841;SDS011;8021;48.022;11.812;2024-01-16T13:22:31;0.50;;;0.50;;
15841;SDS011;8021;48.022;11.812;2024-01-16T13:25:10;0.40;;;0.40;;
15841;SDS011;8021;48.022;11.812;2024-01-16T13:27:38;0.43;;;0.43;;
15841;SDS011;8021;48.022;11.812;2024-01-16T13:30:06;0.50;;;0.50;;
15841;SDS011;8021;48.022;11.812;2024-01-16T13:32:34;0.43;;;0.43;;
15841;SDS011;8021;48.022;11.812;2024-01-16T13:35:04;0.52;;;0.52;;
15841;SDS011;8021;48.022;11.812;2024-01-16T13:37:35;0.40;;;0.40;;
15841;SDS011;8021;48.022;11.812;2024-01-16T13:40:04;0.52;;;0.52;;
15841;SDS011;8021;48.022;11.812;2024-01-16T13:42:34;0.50;;;0.50;;
15841;SDS011;8021;48.022;11.812;2024-01-16T13:45:02;0.50;;;0.50;;
15841;SDS011;8021;48.022;11.812;2024-01-16T13:47:31;0.57;;;0.57;;
15841;SDS011;8021;48.022;11.812;2024-01-16T13:49:59;0.50;;;0.50;;
15841;SDS011;8021;48.022;11.812;2024-01-16T13:52:30;0.50;;;0.50;;
15841;SDS011;8021;48.022;11.812;2024-01-16T13:54:59;0.40;;;0.40;;
15841;SDS011;8021;48.022;11.812;2024-01-16T13:57:29;0.50;;;0.50;;
15841;SDS011;8021;48.022;11.812;2024-01-16T13:59:56;0.50;;;0.50;;
15841;SDS011;8021;48.022;11.812;2024-01-16T14:02:25;0.60;;;0.60;;
15841;SDS011;8021;48.022;11.812;2024-01-16T14:04:52;0.50;;;0.50;;
15841;SDS011;8021;48.022;11.812;2024-01-16T14:07:20;0.60;;;0.60;;
15841;SDS011;8021;48.022;11.812;2024-01-16T14:09:48;0.50;;;0.50;;
15841;SDS011;8021;48.022;11.812;2024-01-16T14:12:17;0.70;;;0.70;;
15841;SDS011;8021;48.022;11.812;2024-01-16T14:14:45;0.52;;;0.52;;
15841;SDS011;8021;48.022;11.812;2024-01-16T14:17:13;0.53;;;0.53;;
15841;SDS011;8021;48.022;11.812;2024-01-16T14:19:41;0.67;;;0.67;;
15841;SDS011;8021;48.022;11.812;2024-01-16T14:22:09;0.60;;;0.60;;
15841;SDS011;8021;48.022;11.812;2024-01-16T14:24:37;0.60;;;0.60;;
15841;SDS011;8021;48.022;11.812;2024-01-16T14:27:04;0.60;;;0.60;;
15841;SDS011;8021;48.022;11.812;2024-01-16T14:29:34;0.57;;;0.57;;
15841;SDS011;8021;48.022;11.812;2024-01-16T14:32:04;0.90;;;0.90;;
15841;SDS011;8021;48.022;11.812;2024-01-16T14:34:32;0.60;;;0.60;;
15841;SDS011;8021;48.022;11.812;2024-01-16T14:37:00;0.60;;;0.60;;
15841;SDS011;8021;48.022;11.812;2024-01-16T14:39:27;0.70;;;0.70;;
15841;SDS011;8021;48.022;11.812;2024-01-16T14:41:57;0.60;;;0.60;;
15841;SDS011;8021;48.022;11.812;2024-01-16T14:44:25;0.80;;;0.80;;
15841;SDS011;8021;48.022;11.812;2024-01-16T14:46:54;0.60;;;0.60;;
15841;SDS011;8021;48.022;11.812;2024-01-16T14:49:22;0.70;;;0.70;;
15841;SDS011;8021;48.022;11.812;2024-01-16T14:51:50;0.70;;;0.70;;
15841;SDS011;8021;48.022;11.812;2024-01-16T14:54:18;0.80;;;0.80;;
15841;SDS011;8021;48.022;11.812;2024-01-16T14:56:48;0.70;;;0.70;;
15841;SDS011;8021;48.022;11.812;2024-01-16T14:59:16;0.67;;;0.67;;
15841;SDS011;8021;48.022;11.812;2024-01-16T15:01:44;0.70;;;0.70;;
15841;SDS011;8021;48.022;11.812;2024-01-16T15:04:13;0.90;;;0.90;;
15841;SDS011;8021;48.022;11.812;2024-01-16T15:06:41;0.70;;;0.70;;